sensor_id;sensor_type;location;lat;lon;timestamp;P1;durP1;ratioP1;P2;durP2;ratioP2
15841;SDS011;8021;48.022;11.812;2023-08-06T00:01:32;0.30;;;0.20;;
15841;SDS011;8021;48.022;11.812;2023-08-06T00:03:59;0.20;;;0.20;;
15841;SDS011;8021;48.022;11.812;2023-08-06T00:06:30;0.20;;;0.20;;
15841;SDS011;8021;48.022;11.812;2023-08-06T00:08:57;0.30;;;0.22;;
15841;SDS011;8021;48.022;11.812;2023-08-06T00:11:25;0.20;;;0.20;;
15841;SDS011;8021;48.022;11.812;2023-08-06T00:13:52;0.20;;;0.20;;
15841;SDS011;8021;48.022;11.812;2023-08-06T00:16:21;0.28;;;0.20;;
15841;SDS011;8021;48.022;11.812;2023-08-06T00:18:49;0.30;;;0.20;;
15841;SDS011;8021;48.022;11.812;2023-08-06T00:21:16;0.28;;;0.20;;
15841;SDS011;8021;48.022;11.812;2023-08-06T00:23:44;0.20;;;0.20;;
15841;SDS011;8021;48.022;11.812;2023-08-06T00:26:11;0.20;;;0.20;;
15841;SDS011;8021;48.022;11.812;2023-08-06T00:28:39;0.20;;;0.20;;
15841;SDS011;8021;48.022;11.812;2023-08-06T00:31:06;0.30;;;0.25;;
15841;SDS011;8021;48.022;11.812;2023-08-06T00:33:35;0.20;;;0.20;;
15841;SDS011;8021;48.022;11.812;2023-08-06T00:36:03;0.20;;;0.10;;
15841;SDS011;8021;48.022;11.812;2023-08-06T00:38:30;0.20;;;0.20;;
15841;SDS011;8021;48.022;11.812;2023-08-06T00:40:58;0.20;;;0.20;;
15841;SDS011;8021;48.022;11.812;2023-08-06T00:43:30;0.20;;;0.20;;
15841;SDS011;8021;48.022;11.812;2023-08-06T00:45:57;0.25;;;0.20;;
15841;SDS011;8021;48.022;11.812;2023-08-06T00:48:25;0.20;;;0.20;;
15841;SDS011;8021;48.022;11.812;2023-08-06T00:50:54;0.20;;;0.20;;
15841;SDS011;8021;48.022;11.812;2023-08-06T00:53:21;0.30;;;0.28;;
15841;SDS011;8021;48.022;11.812;2023-08-06T00:55:49;0.20;;;0.20;;
15841;SDS011;8021;48.022;11.812;2023-08-06T00:58:17;0.30;;;0.20;;
15841;SDS011;8021;48.022;11.812;2023-08-06T01:00:45;0.20;;;0.20;;
15841;SDS011;8021;48.022;11.812;2023-08-06T01:03:14;0.20;;;0.20;;
15841;SDS011;8021;48.022;11.812;2023-08-06T01:05:42;0.30;;;0.22;;
15841;SDS011;8021;48.022;11.812;2023-08-06T01:08:15;0.30;;;0.20;;
15841;SDS011;8021;48.022;11.812;2023-08-06T01:10:46;0.20;;;0.20;;
15841;SDS011;8021;48.022;11.812;2023-08-06T01:13:16;0.20;;;0.20;;
15841;SDS011;8021;48.022;11.812;2023-08-06T01:15:46;0.20;;;0.20;;
15841;SDS011;8021;48.022;11.812;2023-08-06T01:18:14;0.20;;;0.20;;
15841;SDS011;8021;48.022;11.812;2023-08-06T01:20:43;0.20;;;0.20;;
15841;SDS011;8021;48.022;11.812;2023-08-06T01:23:10;0.22;;;0.20;;
15841;SDS011;8021;48.022;11.812;2023-08-06T01:25:40;0.20;;;0.20;;
15841;SDS011;8021;48.022;11.812;2023-08-06T01:28:11;0.20;;;0.20;;
15841;SDS011;8021;48.022;11.812;2023-08-06T01:30:43;0.20;;;0.20;;
15841;SDS011;8021;48.022;11.812;2023-08-06T01:33:13;0.20;;;0.20;;
15841;SDS011;8021;48.022;11.812;2023-08-06T01:35:45;0.30;;;0.20;;
15841;SDS011;8021;48.022;11.812;2023-08-06T01:38:13;0.20;;;0.20;;
15841;SDS011;8021;48.022;11.812;2023-08-06T01:40:41;0.20;;;0.20;;
15841;SDS011;8021;48.022;11.812;2023-08-06T01:43:08;0.20;;;0.20;;
15841;SDS011;8021;48.022;11.812;2023-08-06T01:45:36;0.30;;;0.20;;
15841;SDS011;8021;48.022;11.812;2023-08-06T01:48:04;0.20;;;0.20;;
15841;SDS011;8021;48.022;11.812;2023-08-06T01:50:32;0.30;;;0.20;;
15841;SDS011;8021;48.022;11.812;2023-08-06T01:53:01;0.20;;;0.20;;
15841;SDS011;8021;48.022;11.812;2023-08-06T01:55:28;0.30;;;0.20;;
15841;SDS011;8021;48.022;11.812;2023-08-06T01:57:57;0.30;;;0.20;;
15841;SDS011;8021;48.022;11.812;2023-08-06T02:00:25;0.30;;;0.20;;
15841;SDS011;8021;48.022;11.812;2023-08-06T02:02:54;0.20;;;0.20;;
15841;SDS011;8021;48.022;11.812;2023-08-06T02:05:21;0.30;;;0.28;;
15841;SDS011;8021;48.022;11.812;2023-08-06T02:07:49;0.30;;;0.20;;
15841;SDS011;8021;48.022;11.812;2023-08-06T02:10:17;0.20;;;0.20;;
15841;SDS011;8021;48.022;11.812;2023-08-06T02:12:45;0.30;;;0.20;;
15841;SDS011;8021;48.022;11.812;2023-08-06T02:15:12;0.30;;;0.20;;
15841;SDS011;8021;48.022;11.812;2023-08-06T02:17:40;0.30;;;0.22;;
15841;SDS011;8021;48.022;11.812;2023-08-06T02:20:08;0.30;;;0.30;;
15841;SDS011;8021;48.022;11.812;2023-08-06T02:22:36;0.20;;;0.20;;
15841;SDS011;8021;48.022;11.812;2023-08-06T02:25:04;0.30;;;0.30;;
15841;SDS011;8021;48.022;11.812;2023-08-06T02:27:34;0.30;;;0.30;;
15841;SDS011;8021;48.022;11.812;2023-08-06T02:30:01;0.30;;;0.20;;
15841;SDS011;8021;48.022;11.812;2023-08-06T02:32:31;0.30;;;0.30;;
15841;SDS011;8021;48.022;11.812;2023-08-06T02:35:01;0.30;;;0.20;;
15841;SDS011;8021;48.022;11.812;2023-08-06T02:37:29;0.30;;;0.20;;
15841;SDS011;8021;48.022;11.812;2023-08-06T02:39:56;0.20;;;0.20;;
15841;SDS011;8021;48.022;11.812;2023-08-06T02:42:24;0.30;;;0.20;;
15841;SDS011;8021;48.022;11.812;2023-08-06T02:44:54;0.20;;;0.20;;
15841;SDS011;8021;48.022;11.812;2023-08-06T02:47:22;0.20;;;0.20;;
15841;SDS011;8021;48.022;11.812;2023-08-06T02:49:50;0.20;;;0.20;;
15841;SDS011;8021;48.022;11.812;2023-08-06T02:52:19;0.20;;;0.20;;
15841;SDS011;8021;48.022;11.812;2023-08-06T02:54:46;0.30;;;0.30;;
15841;SDS011;8021;48.022;11.812;2023-08-06T02:57:14;0.30;;;0.30;;
15841;SDS011;8021;48.022;11.812;2023-08-06T02:59:42;0.30;;;0.30;;
15841;SDS011;8021;48.022;11.812;2023-08-06T03:02:15;0.20;;;0.20;;
15841;SDS011;8021;48.022;11.812;2023-08-06T03:05:03;0.30;;;0.20;;
15841;SDS011;8021;48.022;11.812;2023-08-06T03:07:36;0.30;;;0.30;;
15841;SDS011;8021;48.022;11.812;2023-08-06T03:10:13;0.30;;;0.30;;
15841;SDS011;8021;48.022;11.812;2023-08-06T03:12:42;0.20;;;0.20;;
15841;SDS011;8021;48.022;11.812;2023-08-06T03:15:09;0.30;;;0.22;;
15841;SDS011;8021;48.022;11.812;2023-08-06T03:17:41;0.20;;;0.20;;
15841;SDS011;8021;48.022;11.812;2023-08-06T03:20:11;0.30;;;0.30;;
15841;SDS011;8021;48.022;11.812;2023-08-06T03:22:39;0.30;;;0.30;;
15841;SDS011;8021;48.022;11.812;2023-08-06T03:25:07;0.30;;;0.20;;
15841;SDS011;8021;48.022;11.812;2023-08-06T03:27:35;0.30;;;0.30;;
15841;SDS011;8021;48.022;11.812;2023-08-06T03:30:03;0.30;;;0.30;;
15841;SDS011;8021;48.022;11.812;2023-08-06T03:32:31;0.30;;;0.30;;
15841;SDS011;8021;48.022;11.812;2023-08-06T03:35:01;0.20;;;0.20;;
15841;SDS011;8021;48.022;11.812;2023-08-06T03:37:30;0.30;;;0.30;;
15841;SDS011;8021;48.022;11.812;2023-08-06T03:39:58;0.30;;;0.30;;
15841;SDS011;8021;48.022;11.812;2023-08-06T03:42:25;0.30;;;0.30;;
15841;SDS011;8021;48.022;11.812;2023-08-06T03:44:53;0.20;;;0.20;;
15841;SDS011;8021;48.022;11.812;2023-08-06T03:47:20;0.30;;;0.25;;
15841;SDS011;8021;48.022;11.812;2023-08-06T03:49:50;0.30;;;0.20;;
15841;SDS011;8021;48.022;11.812;2023-08-06T03:52:19;0.30;;;0.30;;
15841;SDS011;8021;48.022;11.812;2023-08-06T03:54:47;0.32;;;0.32;;
15841;SDS011;8021;48.022;11.812;2023-08-06T03:57:14;0.30;;;0.30;;
15841;SDS011;8021;48.022;11.812;2023-08-06T03:59:42;0.30;;;0.30;;
15841;SDS011;8021;48.022;11.812;2023-08-06T04:02:21;0.30;;;0.22;;
15841;SDS011;8021;48.022;11.812;2023-08-06T04:04:48;0.30;;;0.20;;
15841;SDS011;8021;48.022;11.812;2023-08-06T04:07:16;0.30;;;0.30;;
15841;SDS011;8021;48.022;11.812;2023-08-06T04:12:31;0.30;;;0.30;;
15841;SDS011;8021;48.022;11.812;2023-08-06T04:14:59;0.30;;;0.25;;
15841;SDS011;8021;48.022;11.812;2023-08-06T04:17:27;0.30;;;0.20;;
15841;SDS011;8021;48.022;11.812;2023-08-06T04:19:54;0.30;;;0.30;;
15841;SDS011;8021;48.022;11.812;2023-08-06T04:22:24;0.30;;;0.30;;
15841;SDS011;8021;48.022;11.812;2023-08-06T04:24:52;0.30;;;0.25;;
15841;SDS011;8021;48.022;11.812;2023-08-06T04:27:19;0.30;;;0.20;;
15841;SDS011;8021;48.022;11.812;2023-08-06T04:29:49;0.30;;;0.20;;
15841;SDS011;8021;48.022;11.812;2023-08-06T04:32:17;0.20;;;0.20;;
15841;SDS011;8021;48.022;11.812;2023-08-06T04:34:49;0.28;;;0.20;;
15841;SDS011;8021;48.022;11.812;2023-08-06T04:37:16;0.30;;;0.20;;
15841;SDS011;8021;48.022;11.812;2023-08-06T04:39:44;0.20;;;0.20;;
15841;SDS011;8021;48.022;11.812;2023-08-06T04:42:11;0.20;;;0.20;;
15841;SDS011;8021;48.022;11.812;2023-08-06T04:44:39;0.30;;;0.30;;
15841;SDS011;8021;48.022;11.812;2023-08-06T04:47:07;0.30;;;0.20;;
15841;SDS011;8021;48.022;11.812;2023-08-06T04:49:35;0.30;;;0.28;;
15841;SDS011;8021;48.022;11.812;2023-08-06T04:52:03;0.20;;;0.20;;
15841;SDS011;8021;48.022;11.812;2023-08-06T04:54:31;0.20;;;0.20;;
15841;SDS011;8021;48.022;11.812;2023-08-06T04:56:58;0.30;;;0.30;;
15841;SDS011;8021;48.022;11.812;2023-08-06T04:59:25;0.22;;;0.20;;
15841;SDS011;8021;48.022;11.812;2023-08-06T05:01:53;0.30;;;0.20;;
15841;SDS011;8021;48.022;11.812;2023-08-06T05:04:22;0.20;;;0.20;;
15841;SDS011;8021;48.022;11.812;2023-08-06T05:06:50;0.20;;;0.20;;
15841;SDS011;8021;48.022;11.812;2023-08-06T05:09:17;0.30;;;0.20;;
15841;SDS011;8021;48.022;11.812;2023-08-06T05:11:46;0.30;;;0.20;;
15841;SDS011;8021;48.022;11.812;2023-08-06T05:14:13;0.30;;;0.20;;
15841;SDS011;8021;48.022;11.812;2023-08-06T05:16:41;0.20;;;0.17;;
15841;SDS011;8021;48.022;11.812;2023-08-06T05:19:08;0.20;;;0.20;;
15841;SDS011;8021;48.022;11.812;2023-08-06T05:21:37;0.20;;;0.20;;
15841;SDS011;8021;48.022;11.812;2023-08-06T05:24:05;0.20;;;0.20;;
15841;SDS011;8021;48.022;11.812;2023-08-06T05:26:32;0.20;;;0.20;;
15841;SDS011;8021;48.022;11.812;2023-08-06T05:29:00;0.20;;;0.20;;
15841;SDS011;8021;48.022;11.812;2023-08-06T05:31:27;0.20;;;0.20;;
15841;SDS011;8021;48.022;11.812;2023-08-06T05:33:55;0.20;;;0.20;;
15841;SDS011;8021;48.022;11.812;2023-08-06T05:36:22;0.20;;;0.20;;
15841;SDS011;8021;48.022;11.812;2023-08-06T05:38:51;0.20;;;0.20;;
15841;SDS011;8021;48.022;11.812;2023-08-06T05:41:19;0.20;;;0.20;;
15841;SDS011;8021;48.022;11.812;2023-08-06T05:43:46;0.20;;;0.10;;
15841;SDS011;8021;48.022;11.812;2023-08-06T05:46:14;0.30;;;0.20;;
15841;SDS011;8021;48.022;11.812;2023-08-06T05:48:41;0.20;;;0.20;;
15841;SDS011;8021;48.022;11.812;2023-08-06T05:51:09;0.20;;;0.20;;
15841;SDS011;8021;48.022;11.812;2023-08-06T05:53:38;0.20;;;0.20;;
15841;SDS011;8021;48.022;11.812;2023-08-06T05:56:07;0.20;;;0.20;;
15841;SDS011;8021;48.022;11.812;2023-08-06T05:58:35;0.20;;;0.20;;
15841;SDS011;8021;48.022;11.812;2023-08-06T06:01:02;0.30;;;0.20;;
15841;SDS011;8021;48.022;11.812;2023-08-06T06:03:30;0.20;;;0.20;;
15841;SDS011;8021;48.022;11.812;2023-08-06T06:05:57;0.20;;;0.13;;
15841;SDS011;8021;48.022;11.812;2023-08-06T06:08:25;0.20;;;0.20;;
15841;SDS011;8021;48.022;11.812;2023-08-06T06:10:53;0.30;;;0.20;;
15841;SDS011;8021;48.022;11.812;2023-08-06T06:13:22;0.20;;;0.20;;
15841;SDS011;8021;48.022;11.812;2023-08-06T06:15:49;0.20;;;0.20;;
15841;SDS011;8021;48.022;11.812;2023-08-06T06:18:17;0.20;;;0.20;;
15841;SDS011;8021;48.022;11.812;2023-08-06T06:20:44;0.20;;;0.20;;
15841;SDS011;8021;48.022;11.812;2023-08-06T06:23:14;0.25;;;0.20;;
15841;SDS011;8021;48.022;11.812;2023-08-06T06:26:06;0.30;;;0.20;;
15841;SDS011;8021;48.022;11.812;2023-08-06T06:28:35;0.20;;;0.20;;
15841;SDS011;8021;48.022;11.812;2023-08-06T06:31:03;0.20;;;0.20;;
15841;SDS011;8021;48.022;11.812;2023-08-06T06:33:30;0.20;;;0.20;;
15841;SDS011;8021;48.022;11.812;2023-08-06T06:35:58;0.20;;;0.20;;
15841;SDS011;8021;48.022;11.812;2023-08-06T06:38:25;0.20;;;0.20;;
15841;SDS011;8021;48.022;11.812;2023-08-06T06:40:53;0.20;;;0.20;;
15841;SDS011;8021;48.022;11.812;2023-08-06T06:43:21;0.30;;;0.20;;
15841;SDS011;8021;48.022;11.812;2023-08-06T06:45:53;0.30;;;0.20;;
15841;SDS011;8021;48.022;11.812;2023-08-06T06:48:21;0.25;;;0.20;;
15841;SDS011;8021;48.022;11.812;2023-08-06T06:50:49;0.20;;;0.20;;
15841;SDS011;8021;48.022;11.812;2023-08-06T06:53:16;0.20;;;0.20;;
15841;SDS011;8021;48.022;11.812;2023-08-06T06:55:44;0.30;;;0.20;;
15841;SDS011;8021;48.022;11.812;2023-08-06T06:58:11;0.20;;;0.20;;
15841;SDS011;8021;48.022;11.812;2023-08-06T07:00:38;0.20;;;0.20;;
15841;SDS011;8021;48.022;11.812;2023-08-06T07:03:07;0.20;;;0.13;;
15841;SDS011;8021;48.022;11.812;2023-08-06T07:05:35;0.20;;;0.20;;
15841;SDS011;8021;48.022;11.812;2023-08-06T07:08:02;0.20;;;0.10;;
15841;SDS011;8021;48.022;11.812;2023-08-06T07:10:30;0.20;;;0.20;;
15841;SDS011;8021;48.022;11.812;2023-08-06T07:12:57;0.20;;;0.20;;
15841;SDS011;8021;48.022;11.812;2023-08-06T07:15:25;0.20;;;0.20;;
15841;SDS011;8021;48.022;11.812;2023-08-06T07:17:52;0.20;;;0.20;;
15841;SDS011;8021;48.022;11.812;2023-08-06T07:20:21;0.10;;;0.10;;
15841;SDS011;8021;48.022;11.812;2023-08-06T07:22:49;0.15;;;0.10;;
15841;SDS011;8021;48.022;11.812;2023-08-06T07:25:17;0.10;;;0.10;;
15841;SDS011;8021;48.022;11.812;2023-08-06T07:27:45;0.10;;;0.10;;
15841;SDS011;8021;48.022;11.812;2023-08-06T07:30:13;0.10;;;0.10;;
15841;SDS011;8021;48.022;11.812;2023-08-06T07:32:40;0.10;;;0.10;;
15841;SDS011;8021;48.022;11.812;2023-08-06T07:35:08;0.10;;;0.10;;
15841;SDS011;8021;48.022;11.812;2023-08-06T07:37:40;0.10;;;0.10;;
15841;SDS011;8021;48.022;11.812;2023-08-06T07:40:08;0.10;;;0.10;;
15841;SDS011;8021;48.022;11.812;2023-08-06T07:42:35;0.10;;;0.10;;
15841;SDS011;8021;48.022;11.812;2023-08-06T07:45:03;0.20;;;0.20;;
15841;SDS011;8021;48.022;11.812;2023-08-06T07:47:31;0.10;;;0.10;;
15841;SDS011;8021;48.022;11.812;2023-08-06T07:49:58;0.10;;;0.10;;
15841;SDS011;8021;48.022;11.812;2023-08-06T07:52:26;0.10;;;0.10;;
15841;SDS011;8021;48.022;11.812;2023-08-06T07:54:55;0.20;;;0.20;;
15841;SDS011;8021;48.022;11.812;2023-08-06T07:57:22;0.20;;;0.10;;
15841;SDS011;8021;48.022;11.812;2023-08-06T07:59:50;0.13;;;0.10;;
15841;SDS011;8021;48.022;11.812;2023-08-06T08:02:19;0.20;;;0.10;;
15841;SDS011;8021;48.022;11.812;2023-08-06T08:04:47;0.20;;;0.20;;
15841;SDS011;8021;48.022;11.812;2023-08-06T08:07:15;0.20;;;0.20;;
15841;SDS011;8021;48.022;11.812;2023-08-06T08:09:42;0.20;;;0.20;;
15841;SDS011;8021;48.022;11.812;2023-08-06T08:12:11;0.20;;;0.10;;
15841;SDS011;8021;48.022;11.812;2023-08-06T08:14:38;0.20;;;0.20;;
15841;SDS011;8021;48.022;11.812;2023-08-06T08:17:06;0.20;;;0.20;;
15841;SDS011;8021;48.022;11.812;2023-08-06T08:19:33;0.20;;;0.20;;
15841;SDS011;8021;48.022;11.812;2023-08-06T08:22:01;0.20;;;0.10;;
15841;SDS011;8021;48.022;11.812;2023-08-06T08:24:29;0.20;;;0.20;;
15841;SDS011;8021;48.022;11.812;2023-08-06T08:26:57;0.10;;;0.10;;
15841;SDS011;8021;48.022;11.812;2023-08-06T08:29:25;0.10;;;0.10;;
15841;SDS011;8021;48.022;11.812;2023-08-06T08:31:53;0.10;;;0.10;;
15841;SDS011;8021;48.022;11.812;2023-08-06T08:34:21;0.10;;;0.10;;
15841;SDS011;8021;48.022;11.812;2023-08-06T08:36:48;0.10;;;0.10;;
15841;SDS011;8021;48.022;11.812;2023-08-06T08:39:16;0.03;;;0.03;;
15841;SDS011;8021;48.022;11.812;2023-08-06T08:41:43;0.10;;;0.10;;
15841;SDS011;8021;48.022;11.812;2023-08-06T08:44:11;0.10;;;0.10;;
15841;SDS011;8021;48.022;11.812;2023-08-06T08:46:41;0.10;;;0.10;;
15841;SDS011;8021;48.022;11.812;2023-08-06T08:49:10;0.10;;;0.10;;
15841;SDS011;8021;48.022;11.812;2023-08-06T08:51:38;0.10;;;0.10;;
15841;SDS011;8021;48.022;11.812;2023-08-06T08:54:05;0.10;;;0.10;;
15841;SDS011;8021;48.022;11.812;2023-08-06T08:56:35;0.10;;;0.10;;
15841;SDS011;8021;48.022;11.812;2023-08-06T08:59:03;0.10;;;0.10;;
15841;SDS011;8021;48.022;11.812;2023-08-06T09:01:30;0.10;;;0.10;;
15841;SDS011;8021;48.022;11.812;2023-08-06T09:03:59;0.10;;;0.10;;
15841;SDS011;8021;48.022;11.812;2023-08-06T09:06:28;0.10;;;0.10;;
15841;SDS011;8021;48.022;11.812;2023-08-06T09:09:01;0.10;;;0.10;;
15841;SDS011;8021;48.022;11.812;2023-08-06T09:11:29;0.10;;;0.10;;
15841;SDS011;8021;48.022;11.812;2023-08-06T09:14:04;0.17;;;0.17;;
15841;SDS011;8021;48.022;11.812;2023-08-06T09:16:33;0.10;;;0.10;;
15841;SDS011;8021;48.022;11.812;2023-08-06T09:19:07;0.20;;;0.20;;
15841;SDS011;8021;48.022;11.812;2023-08-06T09:21:36;0.20;;;0.20;;
15841;SDS011;8021;48.022;11.812;2023-08-06T09:24:06;0.20;;;0.20;;
15841;SDS011;8021;48.022;11.812;2023-08-06T09:26:34;0.10;;;0.10;;
15841;SDS011;8021;48.022;11.812;2023-08-06T09:29:03;0.20;;;0.20;;
15841;SDS011;8021;48.022;11.812;2023-08-06T09:31:40;0.20;;;0.20;;
15841;SDS011;8021;48.022;11.812;2023-08-06T09:34:14;0.20;;;0.20;;
15841;SDS011;8021;48.022;11.812;2023-08-06T09:36:42;0.20;;;0.20;;
15841;SDS011;8021;48.022;11.812;2023-08-06T09:39:13;0.20;;;0.20;;
15841;SDS011;8021;48.022;11.812;2023-08-06T09:41:40;0.20;;;0.20;;
15841;SDS011;8021;48.022;11.812;2023-08-06T09:44:14;0.20;;;0.20;;
15841;SDS011;8021;48.022;11.812;2023-08-06T09:46:42;0.20;;;0.20;;
15841;SDS011;8021;48.022;11.812;2023-08-06T09:49:09;0.30;;;0.20;;
15841;SDS011;8021;48.022;11.812;2023-08-06T09:51:38;0.20;;;0.20;;
15841;SDS011;8021;48.022;11.812;2023-08-06T09:54:06;0.20;;;0.20;;
15841;SDS011;8021;48.022;11.812;2023-08-06T09:56:52;0.20;;;0.20;;
15841;SDS011;8021;48.022;11.812;2023-08-06T09:59:19;0.20;;;0.20;;
15841;SDS011;8021;48.022;11.812;2023-08-06T10:01:47;0.20;;;0.20;;
15841;SDS011;8021;48.022;11.812;2023-08-06T10:04:15;0.20;;;0.20;;
15841;SDS011;8021;48.022;11.812;2023-08-06T10:06:50;0.20;;;0.20;;
15841;SDS011;8021;48.022;11.812;2023-08-06T10:09:17;0.20;;;0.20;;
15841;SDS011;8021;48.022;11.812;2023-08-06T10:11:47;0.20;;;0.20;;
15841;SDS011;8021;48.022;11.812;2023-08-06T10:14:19;0.10;;;0.10;;
15841;SDS011;8021;48.022;11.812;2023-08-06T10:16:48;0.20;;;0.20;;
15841;SDS011;8021;48.022;11.812;2023-08-06T10:19:16;0.15;;;0.15;;
15841;SDS011;8021;48.022;11.812;2023-08-06T10:24:28;0.10;;;0.10;;
15841;SDS011;8021;48.022;11.812;2023-08-06T10:27:12;0.20;;;0.10;;
15841;SDS011;8021;48.022;11.812;2023-08-06T10:29:39;0.20;;;0.10;;
15841;SDS011;8021;48.022;11.812;2023-08-06T10:32:07;0.20;;;0.20;;
15841;SDS011;8021;48.022;11.812;2023-08-06T10:34:53;0.15;;;0.10;;
15841;SDS011;8021;48.022;11.812;2023-08-06T10:37:20;0.20;;;0.20;;
15841;SDS011;8021;48.022;11.812;2023-08-06T10:39:50;0.20;;;0.20;;
15841;SDS011;8021;48.022;11.812;2023-08-06T10:42:20;0.10;;;0.10;;
15841;SDS011;8021;48.022;11.812;2023-08-06T10:47:45;0.10;;;0.10;;
15841;SDS011;8021;48.022;11.812;2023-08-06T10:50:13;0.10;;;0.10;;
15841;SDS011;8021;48.022;11.812;2023-08-06T10:52:43;0.10;;;0.10;;
15841;SDS011;8021;48.022;11.812;2023-08-06T10:55:12;0.13;;;0.10;;
15841;SDS011;8021;48.022;11.812;2023-08-06T10:57:40;0.13;;;0.10;;
15841;SDS011;8021;48.022;11.812;2023-08-06T11:00:08;0.10;;;0.10;;
15841;SDS011;8021;48.022;11.812;2023-08-06T11:02:42;0.20;;;0.10;;
15841;SDS011;8021;48.022;11.812;2023-08-06T11:05:10;0.20;;;0.20;;
15841;SDS011;8021;48.022;11.812;2023-08-06T11:07:38;0.20;;;0.20;;
15841;SDS011;8021;48.022;11.812;2023-08-06T11:10:06;0.20;;;0.10;;
15841;SDS011;8021;48.022;11.812;2023-08-06T11:12:35;0.20;;;0.13;;
15841;SDS011;8021;48.022;11.812;2023-08-06T11:15:03;0.20;;;0.20;;
15841;SDS011;8021;48.022;11.812;2023-08-06T11:17:38;0.30;;;0.20;;
15841;SDS011;8021;48.022;11.812;2023-08-06T11:20:07;0.20;;;0.20;;
15841;SDS011;8021;48.022;11.812;2023-08-06T11:22:35;0.20;;;0.15;;
15841;SDS011;8021;48.022;11.812;2023-08-06T11:25:03;0.20;;;0.20;;
15841;SDS011;8021;48.022;11.812;2023-08-06T11:27:31;0.10;;;0.10;;
15841;SDS011;8021;48.022;11.812;2023-08-06T11:30:00;0.17;;;0.17;;
15841;SDS011;8021;48.022;11.812;2023-08-06T11:32:27;0.20;;;0.20;;
15841;SDS011;8021;48.022;11.812;2023-08-06T11:34:55;0.20;;;0.13;;
15841;SDS011;8021;48.022;11.812;2023-08-06T11:37:23;0.20;;;0.20;;
15841;SDS011;8021;48.022;11.812;2023-08-06T11:39:53;0.20;;;0.10;;
15841;SDS011;8021;48.022;11.812;2023-08-06T11:42:22;0.10;;;0.10;;
15841;SDS011;8021;48.022;11.812;2023-08-06T11:44:50;0.30;;;0.20;;
15841;SDS011;8021;48.022;11.812;2023-08-06T11:47:18;0.20;;;0.10;;
15841;SDS011;8021;48.022;11.812;2023-08-06T11:49:47;0.20;;;0.10;;
15841;SDS011;8021;48.022;11.812;2023-08-06T11:52:15;0.20;;;0.17;;
15841;SDS011;8021;48.022;11.812;2023-08-06T11:54:45;0.20;;;0.15;;
15841;SDS011;8021;48.022;11.812;2023-08-06T11:57:13;0.20;;;0.10;;
15841;SDS011;8021;48.022;11.812;2023-08-06T11:59:43;0.20;;;0.20;;
15841;SDS011;8021;48.022;11.812;2023-08-06T12:02:11;0.20;;;0.10;;
15841;SDS011;8021;48.022;11.812;2023-08-06T12:04:58;0.20;;;0.15;;
15841;SDS011;8021;48.022;11.812;2023-08-06T12:07:31;0.20;;;0.20;;
15841;SDS011;8021;48.022;11.812;2023-08-06T12:09:58;0.20;;;0.20;;
15841;SDS011;8021;48.022;11.812;2023-08-06T12:12:26;0.20;;;0.10;;
15841;SDS011;8021;48.022;11.812;2023-08-06T12:14:54;0.20;;;0.20;;
15841;SDS011;8021;48.022;11.812;2023-08-06T12:17:21;0.20;;;0.10;;
15841;SDS011;8021;48.022;11.812;2023-08-06T12:19:49;0.20;;;0.10;;
15841;SDS011;8021;48.022;11.812;2023-08-06T12:22:18;0.20;;;0.20;;
15841;SDS011;8021;48.022;11.812;2023-08-06T12:24:49;0.20;;;0.10;;
15841;SDS011;8021;48.022;11.812;2023-08-06T12:27:17;0.20;;;0.15;;
15841;SDS011;8021;48.022;11.812;2023-08-06T12:29:45;0.20;;;0.20;;
15841;SDS011;8021;48.022;11.812;2023-08-06T12:32:12;0.20;;;0.17;;
15841;SDS011;8021;48.022;11.812;2023-08-06T12:34:40;0.20;;;0.15;;
15841;SDS011;8021;48.022;11.812;2023-08-06T12:37:20;0.20;;;0.20;;
15841;SDS011;8021;48.022;11.812;2023-08-06T12:43:00;0.20;;;0.20;;
15841;SDS011;8021;48.022;11.812;2023-08-06T12:45:28;0.20;;;0.20;;
15841;SDS011;8021;48.022;11.812;2023-08-06T12:47:55;0.20;;;0.20;;
15841;SDS011;8021;48.022;11.812;2023-08-06T12:50:22;0.20;;;0.10;;
15841;SDS011;8021;48.022;11.812;2023-08-06T12:52:51;0.20;;;0.20;;
15841;SDS011;8021;48.022;11.812;2023-08-06T12:55:18;0.20;;;0.17;;
15841;SDS011;8021;48.022;11.812;2023-08-06T12:57:46;0.20;;;0.20;;
15841;SDS011;8021;48.022;11.812;2023-08-06T13:00:24;0.20;;;0.13;;
15841;SDS011;8021;48.022;11.812;2023-08-06T13:02:51;0.20;;;0.20;;
15841;SDS011;8021;48.022;11.812;2023-08-06T13:05:19;0.20;;;0.20;;
15841;SDS011;8021;48.022;11.812;2023-08-06T13:07:47;0.20;;;0.20;;
15841;SDS011;8021;48.022;11.812;2023-08-06T13:10:16;0.20;;;0.20;;
15841;SDS011;8021;48.022;11.812;2023-08-06T13:12:43;0.20;;;0.20;;
15841;SDS011;8021;48.022;11.812;2023-08-06T13:15:11;0.20;;;0.20;;
15841;SDS011;8021;48.022;11.812;2023-08-06T13:17:40;0.20;;;0.20;;
15841;SDS011;8021;48.022;11.812;2023-08-06T13:20:08;0.20;;;0.20;;
15841;SDS011;8021;48.022;11.812;2023-08-06T13:22:36;0.20;;;0.13;;
15841;SDS011;8021;48.022;11.812;2023-08-06T13:27:58;0.20;;;0.10;;
15841;SDS011;8021;48.022;11.812;2023-08-06T13:30:25;0.20;;;0.13;;
15841;SDS011;8021;48.022;11.812;2023-08-06T13:33:17;0.20;;;0.20;;
15841;SDS011;8021;48.022;11.812;2023-08-06T13:35:45;0.20;;;0.20;;
15841;SDS011;8021;48.022;11.812;2023-08-06T13:38:12;0.20;;;0.20;;
15841;SDS011;8021;48.022;11.812;2023-08-06T13:40:40;0.20;;;0.20;;
15841;SDS011;8021;48.022;11.812;2023-08-06T13:43:08;0.20;;;0.20;;
15841;SDS011;8021;48.022;11.812;2023-08-06T13:45:36;0.20;;;0.20;;
15841;SDS011;8021;48.022;11.812;2023-08-06T13:48:04;0.20;;;0.20;;
15841;SDS011;8021;48.022;11.812;2023-08-06T13:50:32;0.20;;;0.20;;
15841;SDS011;8021;48.022;11.812;2023-08-06T13:53:00;0.20;;;0.20;;
15841;SDS011;8021;48.022;11.812;2023-08-06T13:55:28;0.20;;;0.20;;
15841;SDS011;8021;48.022;11.812;2023-08-06T13:57:55;0.20;;;0.20;;
15841;SDS011;8021;48.022;11.812;2023-08-06T14:00:24;0.20;;;0.20;;
15841;SDS011;8021;48.022;11.812;2023-08-06T14:02:52;0.20;;;0.20;;
15841;SDS011;8021;48.022;11.812;2023-08-06T14:05:20;0.25;;;0.25;;
15841;SDS011;8021;48.022;11.812;2023-08-06T14:07:47;0.20;;;0.20;;
15841;SDS011;8021;48.022;11.812;2023-08-06T14:10:15;0.20;;;0.20;;
15841;SDS011;8021;48.022;11.812;2023-08-06T14:12:42;0.20;;;0.20;;
15841;SDS011;8021;48.022;11.812;2023-08-06T14:15:24;0.20;;;0.20;;
15841;SDS011;8021;48.022;11.812;2023-08-06T14:17:52;0.20;;;0.13;;
15841;SDS011;8021;48.022;11.812;2023-08-06T14:20:19;0.20;;;0.20;;
15841;SDS011;8021;48.022;11.812;2023-08-06T14:22:47;0.20;;;0.20;;
15841;SDS011;8021;48.022;11.812;2023-08-06T14:25:14;0.30;;;0.20;;
15841;SDS011;8021;48.022;11.812;2023-08-06T14:27:42;0.20;;;0.20;;
15841;SDS011;8021;48.022;11.812;2023-08-06T14:30:10;0.30;;;0.20;;
15841;SDS011;8021;48.022;11.812;2023-08-06T14:32:39;0.20;;;0.20;;
15841;SDS011;8021;48.022;11.812;2023-08-06T14:35:07;0.20;;;0.20;;
15841;SDS011;8021;48.022;11.812;2023-08-06T14:37:34;0.20;;;0.20;;
15841;SDS011;8021;48.022;11.812;2023-08-06T14:40:02;0.20;;;0.20;;
15841;SDS011;8021;48.022;11.812;2023-08-06T14:42:29;0.20;;;0.20;;
15841;SDS011;8021;48.022;11.812;2023-08-06T14:44:57;0.30;;;0.20;;
15841;SDS011;8021;48.022;11.812;2023-08-06T14:47:25;0.20;;;0.20;;
15841;SDS011;8021;48.022;11.812;2023-08-06T14:49:53;0.20;;;0.20;;
15841;SDS011;8021;48.022;11.812;2023-08-06T14:52:21;0.20;;;0.20;;
15841;SDS011;8021;48.022;11.812;2023-08-06T14:54:48;0.20;;;0.20;;
15841;SDS011;8021;48.022;11.812;2023-08-06T14:57:18;0.20;;;0.20;;
15841;SDS011;8021;48.022;11.812;2023-08-06T14:59:45;0.20;;;0.10;;
15841;SDS011;8021;48.022;11.812;2023-08-06T15:02:13;0.20;;;0.10;;
15841;SDS011;8021;48.022;11.812;2023-08-06T15:04:40;0.20;;;0.20;;
15841;SDS011;8021;48.022;11.812;2023-08-06T15:07:09;0.20;;;0.20;;
15841;SDS011;8021;48.022;11.812;2023-08-06T15:09:37;0.30;;;0.30;;
15841;SDS011;8021;48.022;11.812;2023-08-06T15:12:24;0.30;;;0.20;;